sensor_id;sensor_type;location;lat;lon;timestamp;P1;durP1;ratioP1;P2;durP2;ratioP2
19867;SDS011;10096;51.112;6.776;2023-06-10T00:02:12;10.75;;;9.75;;
19867;SDS011;10096;51.112;6.776;2023-06-10T00:04:39;11.30;;;10.43;;
19867;SDS011;10096;51.112;6.776;2023-06-10T00:07:09;12.60;;;11.45;;
19867;SDS011;10096;51.112;6.776;2023-06-10T00:09:36;12.45;;;11.25;;
19867;SDS011;10096;51.112;6.776;2023-06-10T00:12:04;13.40;;;11.02;;
19867;SDS011;10096;51.112;6.776;2023-06-10T00:14:32;11.32;;;10.32;;
19867;SDS011;10096;51.112;6.776;2023-06-10T00:17:00;11.90;;;10.77;;
19867;SDS011;10096;51.112;6.776;2023-06-10T00:19:27;11.88;;;10.98;;
19867;SDS011;10096;51.112;6.776;2023-06-10T00:21:55;11.02;;;10.05;;
19867;SDS011;10096;51.112;6.776;2023-06-10T00:24:24;11.77;;;10.77;;
19867;SDS011;10096;51.112;6.776;2023-06-10T00:26:51;11.55;;;10.35;;
19867;SDS011;10096;51.112;6.776;2023-06-10T00:29:18;13.25;;;11.90;;
19867;SDS011;10096;51.112;6.776;2023-06-10T00:31:46;14.50;;;13.15;;
19867;SDS011;10096;51.112;6.776;2023-06-10T00:34:13;11.68;;;10.68;;
19867;SDS011;10096;51.112;6.776;2023-06-10T00:36:40;11.55;;;10.50;;
19867;SDS011;10096;51.112;6.776;2023-06-10T00:39:08;12.27;;;11.18;;
19867;SDS011;10096;51.112;6.776;2023-06-10T00:41:37;12.32;;;10.88;;
19867;SDS011;10096;51.112;6.776;2023-06-10T00:44:05;11.93;;;10.93;;
19867;SDS011;10096;51.112;6.776;2023-06-10T00:46:32;11.93;;;10.95;;
19867;SDS011;10096;51.112;6.776;2023-06-10T00:49:00;14.23;;;12.98;;
19867;SDS011;10096;51.112;6.776;2023-06-10T00:51:27;12.38;;;11.15;;
19867;SDS011;10096;51.112;6.776;2023-06-10T00:53:55;11.50;;;10.40;;
19867;SDS011;10096;51.112;6.776;2023-06-10T00:56:22;11.55;;;10.55;;
19867;SDS011;10096;51.112;6.776;2023-06-10T00:58:51;11.48;;;10.48;;
19867;SDS011;10096;51.112;6.776;2023-06-10T01:01:19;11.00;;;10.10;;
19867;SDS011;10096;51.112;6.776;2023-06-10T01:03:46;12.55;;;11.55;;
19867;SDS011;10096;51.112;6.776;2023-06-10T01:06:14;12.73;;;11.73;;
19867;SDS011;10096;51.112;6.776;2023-06-10T01:08:53;11.45;;;10.55;;
19867;SDS011;10096;51.112;6.776;2023-06-10T01:11:28;12.50;;;11.43;;
19867;SDS011;10096;51.112;6.776;2023-06-10T01:14:02;13.23;;;11.45;;
19867;SDS011;10096;51.112;6.776;2023-06-10T01:16:32;12.75;;;11.55;;
19867;SDS011;10096;51.112;6.776;2023-06-10T01:19:01;13.27;;;12.18;;
19867;SDS011;10096;51.112;6.776;2023-06-10T01:21:30;12.90;;;11.82;;
19867;SDS011;10096;51.112;6.776;2023-06-10T01:23:57;14.10;;;12.80;;
19867;SDS011;10096;51.112;6.776;2023-06-10T01:26:24;14.70;;;13.00;;
19867;SDS011;10096;51.112;6.776;2023-06-10T01:28:57;14.02;;;12.82;;
19867;SDS011;10096;51.112;6.776;2023-06-10T01:31:29;12.57;;;11.43;;
19867;SDS011;10096;51.112;6.776;2023-06-10T01:34:03;13.90;;;12.68;;
19867;SDS011;10096;51.112;6.776;2023-06-10T01:36:38;13.90;;;12.77;;
19867;SDS011;10096;51.112;6.776;2023-06-10T01:39:08;13.63;;;12.52;;
19867;SDS011;10096;51.112;6.776;2023-06-10T01:41:38;12.77;;;11.77;;
19867;SDS011;10096;51.112;6.776;2023-06-10T01:44:06;14.15;;;12.80;;
19867;SDS011;10096;51.112;6.776;2023-06-10T01:46:33;13.82;;;12.52;;
19867;SDS011;10096;51.112;6.776;2023-06-10T01:49:01;13.10;;;12.10;;
19867;SDS011;10096;51.112;6.776;2023-06-10T01:51:29;13.98;;;12.73;;
19867;SDS011;10096;51.112;6.776;2023-06-10T01:53:58;13.80;;;12.65;;
19867;SDS011;10096;51.112;6.776;2023-06-10T01:56:25;13.32;;;12.23;;
19867;SDS011;10096;51.112;6.776;2023-06-10T01:58:52;12.73;;;11.63;;
19867;SDS011;10096;51.112;6.776;2023-06-10T02:01:23;13.23;;;12.00;;
19867;SDS011;10096;51.112;6.776;2023-06-10T02:03:51;13.38;;;12.25;;
19867;SDS011;10096;51.112;6.776;2023-06-10T02:06:18;12.73;;;11.73;;
19867;SDS011;10096;51.112;6.776;2023-06-10T02:08:45;12.85;;;11.75;;
19867;SDS011;10096;51.112;6.776;2023-06-10T02:11:14;12.45;;;11.32;;
19867;SDS011;10096;51.112;6.776;2023-06-10T02:13:41;12.57;;;11.52;;
19867;SDS011;10096;51.112;6.776;2023-06-10T02:16:11;12.73;;;11.63;;
19867;SDS011;10096;51.112;6.776;2023-06-10T02:18:39;12.13;;;11.13;;
19867;SDS011;10096;51.112;6.776;2023-06-10T02:21:08;13.43;;;12.30;;
19867;SDS011;10096;51.112;6.776;2023-06-10T02:23:35;13.82;;;12.65;;
19867;SDS011;10096;51.112;6.776;2023-06-10T02:26:02;12.73;;;11.73;;
19867;SDS011;10096;51.112;6.776;2023-06-10T02:28:32;13.80;;;12.35;;
19867;SDS011;10096;51.112;6.776;2023-06-10T02:30:59;13.75;;;12.52;;
19867;SDS011;10096;51.112;6.776;2023-06-10T02:33:26;13.20;;;12.15;;
19867;SDS011;10096;51.112;6.776;2023-06-10T02:35:53;14.85;;;13.45;;
19867;SDS011;10096;51.112;6.776;2023-06-10T02:38:21;14.02;;;12.82;;
19867;SDS011;10096;51.112;6.776;2023-06-10T02:40:50;14.63;;;13.38;;
19867;SDS011;10096;51.112;6.776;2023-06-10T02:43:17;14.48;;;13.27;;
19867;SDS011;10096;51.112;6.776;2023-06-10T02:45:46;13.27;;;12.10;;
19867;SDS011;10096;51.112;6.776;2023-06-10T02:48:13;14.07;;;12.88;;
19867;SDS011;10096;51.112;6.776;2023-06-10T02:50:40;14.48;;;13.27;;
19867;SDS011;10096;51.112;6.776;2023-06-10T02:53:07;14.00;;;12.80;;
19867;SDS011;10096;51.112;6.776;2023-06-10T02:55:34;14.32;;;13.00;;
19867;SDS011;10096;51.112;6.776;2023-06-10T02:58:02;13.70;;;12.60;;
19867;SDS011;10096;51.112;6.776;2023-06-10T03:00:29;13.82;;;12.48;;
19867;SDS011;10096;51.112;6.776;2023-06-10T03:02:57;13.80;;;12.52;;
19867;SDS011;10096;51.112;6.776;2023-06-10T03:05:27;13.65;;;12.32;;
19867;SDS011;10096;51.112;6.776;2023-06-10T03:07:55;14.10;;;12.80;;
19867;SDS011;10096;51.112;6.776;2023-06-10T03:10:35;13.55;;;12.25;;
19867;SDS011;10096;51.112;6.776;2023-06-10T03:13:02;12.90;;;11.75;;
19867;SDS011;10096;51.112;6.776;2023-06-10T03:15:30;14.02;;;12.82;;
19867;SDS011;10096;51.112;6.776;2023-06-10T03:17:59;14.85;;;13.45;;
19867;SDS011;10096;51.112;6.776;2023-06-10T03:20:27;15.10;;;13.75;;
19867;SDS011;10096;51.112;6.776;2023-06-10T03:22:55;14.85;;;13.63;;
19867;SDS011;10096;51.112;6.776;2023-06-10T03:25:22;14.82;;;13.63;;
19867;SDS011;10096;51.112;6.776;2023-06-10T03:27:51;13.82;;;12.73;;
19867;SDS011;10096;51.112;6.776;2023-06-10T03:30:18;13.75;;;12.65;;
19867;SDS011;10096;51.112;6.776;2023-06-10T03:32:45;13.30;;;12.10;;
19867;SDS011;10096;51.112;6.776;2023-06-10T03:35:16;14.57;;;13.30;;
19867;SDS011;10096;51.112;6.776;2023-06-10T03:37:43;14.15;;;12.90;;
19867;SDS011;10096;51.112;6.776;2023-06-10T03:40:10;15.35;;;13.95;;
19867;SDS011;10096;51.112;6.776;2023-06-10T03:42:40;14.30;;;12.90;;
19867;SDS011;10096;51.112;6.776;2023-06-10T03:45:09;14.48;;;13.18;;
19867;SDS011;10096;51.112;6.776;2023-06-10T03:47:37;14.00;;;12.77;;
19867;SDS011;10096;51.112;6.776;2023-06-10T03:50:06;14.20;;;12.77;;
19867;SDS011;10096;51.112;6.776;2023-06-10T03:52:35;14.27;;;12.98;;
19867;SDS011;10096;51.112;6.776;2023-06-10T03:55:05;13.82;;;12.40;;
19867;SDS011;10096;51.112;6.776;2023-06-10T03:57:33;14.10;;;12.85;;
19867;SDS011;10096;51.112;6.776;2023-06-10T04:00:00;20.08;;;13.05;;
19867;SDS011;10096;51.112;6.776;2023-06-10T04:02:35;13.30;;;12.05;;
19867;SDS011;10096;51.112;6.776;2023-06-10T04:05:02;13.13;;;12.00;;
19867;SDS011;10096;51.112;6.776;2023-06-10T04:07:31;13.45;;;12.25;;
19867;SDS011;10096;51.112;6.776;2023-06-10T04:10:00;12.63;;;11.63;;
19867;SDS011;10096;51.112;6.776;2023-06-10T04:12:28;13.82;;;12.48;;
19867;SDS011;10096;51.112;6.776;2023-06-10T04:14:55;12.63;;;11.63;;
19867;SDS011;10096;51.112;6.776;2023-06-10T04:17:25;13.38;;;12.18;;
19867;SDS011;10096;51.112;6.776;2023-06-10T04:19:52;12.73;;;11.52;;
19867;SDS011;10096;51.112;6.776;2023-06-10T04:22:21;13.55;;;12.27;;
19867;SDS011;10096;51.112;6.776;2023-06-10T04:24:48;12.32;;;11.38;;
19867;SDS011;10096;51.112;6.776;2023-06-10T04:27:17;13.02;;;11.85;;
19867;SDS011;10096;51.112;6.776;2023-06-10T04:29:44;12.52;;;11.52;;
19867;SDS011;10096;51.112;6.776;2023-06-10T04:32:11;13.32;;;11.52;;
19867;SDS011;10096;51.112;6.776;2023-06-10T04:34:39;11.82;;;10.82;;
19867;SDS011;10096;51.112;6.776;2023-06-10T04:37:06;11.88;;;10.88;;
19867;SDS011;10096;51.112;6.776;2023-06-10T04:39:33;11.95;;;10.68;;
19867;SDS011;10096;51.112;6.776;2023-06-10T04:42:00;12.43;;;11.52;;
19867;SDS011;10096;51.112;6.776;2023-06-10T04:44:29;12.90;;;11.63;;
19867;SDS011;10096;51.112;6.776;2023-06-10T04:47:00;13.95;;;12.52;;
19867;SDS011;10096;51.112;6.776;2023-06-10T04:49:39;12.38;;;11.30;;
19867;SDS011;10096;51.112;6.776;2023-06-10T04:52:06;12.65;;;11.55;;
19867;SDS011;10096;51.112;6.776;2023-06-10T04:54:36;13.27;;;12.27;;
19867;SDS011;10096;51.112;6.776;2023-06-10T04:57:04;13.10;;;12.00;;
19867;SDS011;10096;51.112;6.776;2023-06-10T04:59:34;12.30;;;11.20;;
19867;SDS011;10096;51.112;6.776;2023-06-10T05:02:03;12.38;;;11.40;;
19867;SDS011;10096;51.112;6.776;2023-06-10T05:04:30;13.60;;;11.75;;
19867;SDS011;10096;51.112;6.776;2023-06-10T05:06:57;12.90;;;11.82;;
19867;SDS011;10096;51.112;6.776;2023-06-10T05:09:25;12.32;;;11.27;;
19867;SDS011;10096;51.112;6.776;2023-06-10T05:11:52;11.98;;;10.98;;
19867;SDS011;10096;51.112;6.776;2023-06-10T05:14:20;12.10;;;11.05;;
19867;SDS011;10096;51.112;6.776;2023-06-10T05:16:52;22.13;;;11.10;;
19867;SDS011;10096;51.112;6.776;2023-06-10T05:19:20;13.10;;;11.90;;
19867;SDS011;10096;51.112;6.776;2023-06-10T05:21:47;12.60;;;11.40;;
19867;SDS011;10096;51.112;6.776;2023-06-10T05:24:15;13.77;;;12.55;;
19867;SDS011;10096;51.112;6.776;2023-06-10T05:26:43;11.93;;;11.02;;
19867;SDS011;10096;51.112;6.776;2023-06-10T05:29:10;12.27;;;11.18;;
19867;SDS011;10096;51.112;6.776;2023-06-10T05:31:38;13.32;;;11.93;;
19867;SDS011;10096;51.112;6.776;2023-06-10T05:34:09;12.68;;;11.52;;
19867;SDS011;10096;51.112;6.776;2023-06-10T05:36:36;12.35;;;11.32;;
19867;SDS011;10096;51.112;6.776;2023-06-10T05:39:03;13.15;;;12.05;;
19867;SDS011;10096;51.112;6.776;2023-06-10T05:41:30;11.88;;;10.80;;
19867;SDS011;10096;51.112;6.776;2023-06-10T05:43:57;11.90;;;10.85;;
19867;SDS011;10096;51.112;6.776;2023-06-10T05:46:24;11.52;;;10.57;;
19867;SDS011;10096;51.112;6.776;2023-06-10T05:48:52;11.10;;;10.13;;
19867;SDS011;10096;51.112;6.776;2023-06-10T05:51:25;10.13;;;9.10;;
19867;SDS011;10096;51.112;6.776;2023-06-10T05:53:54;10.20;;;9.18;;
19867;SDS011;10096;51.112;6.776;2023-06-10T05:56:24;11.85;;;8.07;;
19867;SDS011;10096;51.112;6.776;2023-06-10T05:58:51;9.52;;;8.63;;
19867;SDS011;10096;51.112;6.776;2023-06-10T06:01:19;9.70;;;8.73;;
19867;SDS011;10096;51.112;6.776;2023-06-10T06:03:46;9.50;;;8.70;;
19867;SDS011;10096;51.112;6.776;2023-06-10T06:06:13;9.30;;;8.52;;
19867;SDS011;10096;51.112;6.776;2023-06-10T06:08:41;9.30;;;8.60;;
19867;SDS011;10096;51.112;6.776;2023-06-10T06:11:10;9.40;;;8.60;;
19867;SDS011;10096;51.112;6.776;2023-06-10T06:13:38;9.27;;;8.27;;
19867;SDS011;10096;51.112;6.776;2023-06-10T06:16:06;9.18;;;8.25;;
19867;SDS011;10096;51.112;6.776;2023-06-10T06:18:33;8.65;;;7.85;;
19867;SDS011;10096;51.112;6.776;2023-06-10T06:21:00;7.88;;;7.30;;
19867;SDS011;10096;51.112;6.776;2023-06-10T06:23:29;8.52;;;7.72;;
19867;SDS011;10096;51.112;6.776;2023-06-10T06:25:58;7.72;;;7.13;;
19867;SDS011;10096;51.112;6.776;2023-06-10T06:28:25;8.40;;;7.45;;
19867;SDS011;10096;51.112;6.776;2023-06-10T06:30:54;8.73;;;8.00;;
19867;SDS011;10096;51.112;6.776;2023-06-10T06:33:21;9.00;;;8.30;;
19867;SDS011;10096;51.112;6.776;2023-06-10T06:35:49;9.27;;;8.38;;
19867;SDS011;10096;51.112;6.776;2023-06-10T06:38:17;8.60;;;7.90;;
19867;SDS011;10096;51.112;6.776;2023-06-10T06:40:44;8.23;;;7.63;;
19867;SDS011;10096;51.112;6.776;2023-06-10T06:43:13;8.20;;;7.50;;
19867;SDS011;10096;51.112;6.776;2023-06-10T06:45:42;7.78;;;7.18;;
19867;SDS011;10096;51.112;6.776;2023-06-10T06:48:10;8.48;;;7.68;;
19867;SDS011;10096;51.112;6.776;2023-06-10T06:50:38;9.57;;;7.22;;
19867;SDS011;10096;51.112;6.776;2023-06-10T06:53:06;7.53;;;6.93;;
19867;SDS011;10096;51.112;6.776;2023-06-10T06:55:34;7.18;;;6.57;;
19867;SDS011;10096;51.112;6.776;2023-06-10T06:58:08;7.63;;;7.03;;
19867;SDS011;10096;51.112;6.776;2023-06-10T07:00:38;7.30;;;6.70;;
19867;SDS011;10096;51.112;6.776;2023-06-10T07:03:05;8.15;;;7.45;;
19867;SDS011;10096;51.112;6.776;2023-06-10T07:05:33;8.15;;;7.45;;
19867;SDS011;10096;51.112;6.776;2023-06-10T07:08:00;8.23;;;7.45;;
19867;SDS011;10096;51.112;6.776;2023-06-10T07:10:28;8.07;;;7.43;;
19867;SDS011;10096;51.112;6.776;2023-06-10T07:12:56;7.88;;;7.13;;
19867;SDS011;10096;51.112;6.776;2023-06-10T07:15:23;8.00;;;7.28;;
19867;SDS011;10096;51.112;6.776;2023-06-10T07:17:52;7.65;;;6.90;;
19867;SDS011;10096;51.112;6.776;2023-06-10T07:20:19;7.97;;;7.22;;
19867;SDS011;10096;51.112;6.776;2023-06-10T07:22:46;8.15;;;7.35;;
19867;SDS011;10096;51.112;6.776;2023-06-10T07:25:13;7.35;;;6.60;;
19867;SDS011;10096;51.112;6.776;2023-06-10T07:27:41;8.38;;;7.68;;
19867;SDS011;10096;51.112;6.776;2023-06-10T07:30:10;8.18;;;7.57;;
19867;SDS011;10096;51.112;6.776;2023-06-10T07:32:39;8.85;;;8.05;;
19867;SDS011;10096;51.112;6.776;2023-06-10T07:35:11;8.05;;;7.35;;
19867;SDS011;10096;51.112;6.776;2023-06-10T07:37:38;8.45;;;7.85;;
19867;SDS011;10096;51.112;6.776;2023-06-10T07:40:08;8.35;;;7.75;;
19867;SDS011;10096;51.112;6.776;2023-06-10T07:42:35;7.95;;;7.22;;
19867;SDS011;10096;51.112;6.776;2023-06-10T07:45:03;7.95;;;7.22;;
19867;SDS011;10096;51.112;6.776;2023-06-10T07:47:32;7.45;;;6.85;;
19867;SDS011;10096;51.112;6.776;2023-06-10T07:50:00;8.00;;;7.28;;
19867;SDS011;10096;51.112;6.776;2023-06-10T07:52:29;8.68;;;7.72;;
19867;SDS011;10096;51.112;6.776;2023-06-10T07:54:56;8.32;;;7.55;;
19867;SDS011;10096;51.112;6.776;2023-06-10T07:57:23;8.05;;;7.40;;
19867;SDS011;10096;51.112;6.776;2023-06-10T07:59:51;7.75;;;7.05;;
19867;SDS011;10096;51.112;6.776;2023-06-10T08:02:20;8.18;;;7.38;;
19867;SDS011;10096;51.112;6.776;2023-06-10T08:04:47;7.80;;;7.10;;
19867;SDS011;10096;51.112;6.776;2023-06-10T08:07:14;8.52;;;7.72;;
19867;SDS011;10096;51.112;6.776;2023-06-10T08:09:44;8.23;;;7.47;;
19867;SDS011;10096;51.112;6.776;2023-06-10T08:12:11;8.30;;;7.68;;
19867;SDS011;10096;51.112;6.776;2023-06-10T08:14:38;7.90;;;7.18;;
19867;SDS011;10096;51.112;6.776;2023-06-10T08:17:05;8.25;;;7.53;;
19867;SDS011;10096;51.112;6.776;2023-06-10T08:19:33;7.45;;;6.75;;
19867;SDS011;10096;51.112;6.776;2023-06-10T08:22:03;7.68;;;6.97;;
19867;SDS011;10096;51.112;6.776;2023-06-10T08:24:30;8.02;;;7.25;;
19867;SDS011;10096;51.112;6.776;2023-06-10T08:27:01;8.43;;;7.70;;
19867;SDS011;10096;51.112;6.776;2023-06-10T08:29:28;8.73;;;7.63;;
19867;SDS011;10096;51.112;6.776;2023-06-10T08:31:58;8.70;;;7.90;;
19867;SDS011;10096;51.112;6.776;2023-06-10T08:34:25;8.57;;;7.78;;
19867;SDS011;10096;51.112;6.776;2023-06-10T08:36:52;9.55;;;8.65;;
19867;SDS011;10096;51.112;6.776;2023-06-10T08:39:20;8.00;;;7.28;;
19867;SDS011;10096;51.112;6.776;2023-06-10T08:41:51;8.73;;;7.93;;
19867;SDS011;10096;51.112;6.776;2023-06-10T08:44:32;7.97;;;7.15;;
19867;SDS011;10096;51.112;6.776;2023-06-10T08:47:06;8.23;;;7.43;;
19867;SDS011;10096;51.112;6.776;2023-06-10T08:49:41;8.05;;;7.43;;
19867;SDS011;10096;51.112;6.776;2023-06-10T08:52:13;8.40;;;7.63;;
19867;SDS011;10096;51.112;6.776;2023-06-10T08:54:47;8.20;;;7.55;;
19867;SDS011;10096;51.112;6.776;2023-06-10T08:57:20;7.55;;;7.05;;
19867;SDS011;10096;51.112;6.776;2023-06-10T08:59:48;7.53;;;6.93;;
19867;SDS011;10096;51.112;6.776;2023-06-10T09:02:15;8.38;;;7.57;;
19867;SDS011;10096;51.112;6.776;2023-06-10T09:04:45;8.27;;;7.57;;
19867;SDS011;10096;51.112;6.776;2023-06-10T09:07:13;8.45;;;7.80;;
19867;SDS011;10096;51.112;6.776;2023-06-10T09:09:42;9.40;;;8.50;;
19867;SDS011;10096;51.112;6.776;2023-06-10T09:12:13;8.85;;;8.02;;
19867;SDS011;10096;51.112;6.776;2023-06-10T09:14:42;9.93;;;8.25;;
19867;SDS011;10096;51.112;6.776;2023-06-10T09:17:11;8.93;;;8.20;;
19867;SDS011;10096;51.112;6.776;2023-06-10T09:19:41;9.25;;;8.50;;
19867;SDS011;10096;51.112;6.776;2023-06-10T09:22:11;9.10;;;8.40;;
19867;SDS011;10096;51.112;6.776;2023-06-10T09:24:42;8.27;;;7.57;;
19867;SDS011;10096;51.112;6.776;2023-06-10T09:27:10;8.82;;;8.05;;
19867;SDS011;10096;51.112;6.776;2023-06-10T09:32:24;10.07;;;8.52;;
19867;SDS011;10096;51.112;6.776;2023-06-10T09:34:52;9.90;;;8.98;;
19867;SDS011;10096;51.112;6.776;2023-06-10T09:37:20;9.45;;;8.65;;
19867;SDS011;10096;51.112;6.776;2023-06-10T09:40:00;12.63;;;11.27;;
19867;SDS011;10096;51.112;6.776;2023-06-10T09:42:32;10.07;;;9.13;;
19867;SDS011;10096;51.112;6.776;2023-06-10T09:45:01;9.35;;;8.65;;
19867;SDS011;10096;51.112;6.776;2023-06-10T09:47:29;10.10;;;9.05;;
19867;SDS011;10096;51.112;6.776;2023-06-10T09:49:56;9.85;;;8.80;;
19867;SDS011;10096;51.112;6.776;2023-06-10T09:52:23;9.52;;;8.73;;
19867;SDS011;10096;51.112;6.776;2023-06-10T09:54:51;9.52;;;8.73;;
19867;SDS011;10096;51.112;6.776;2023-06-10T09:57:19;10.98;;;9.50;;
19867;SDS011;10096;51.112;6.776;2023-06-10T09:59:47;9.85;;;9.07;;
19867;SDS011;10096;51.112;6.776;2023-06-10T10:02:20;10.75;;;9.75;;
19867;SDS011;10096;51.112;6.776;2023-06-10T10:04:51;12.88;;;9.95;;
19867;SDS011;10096;51.112;6.776;2023-06-10T10:07:18;10.48;;;9.48;;
19867;SDS011;10096;51.112;6.776;2023-06-10T10:09:45;10.25;;;9.45;;
19867;SDS011;10096;51.112;6.776;2023-06-10T10:12:14;10.05;;;9.05;;
19867;SDS011;10096;51.112;6.776;2023-06-10T10:14:46;9.48;;;8.68;;
19867;SDS011;10096;51.112;6.776;2023-06-10T10:17:14;9.73;;;9.02;;
19867;SDS011;10096;51.112;6.776;2023-06-10T10:19:46;9.80;;;8.93;;
19867;SDS011;10096;51.112;6.776;2023-06-10T10:22:16;8.93;;;8.23;;
19867;SDS011;10096;51.112;6.776;2023-06-10T10:24:49;9.48;;;8.50;;
19867;SDS011;10096;51.112;6.776;2023-06-10T10:27:18;9.90;;;9.10;;
19867;SDS011;10096;51.112;6.776;2023-06-10T10:29:48;9.73;;;8.93;;
19867;SDS011;10096;51.112;6.776;2023-06-10T10:32:21;10.02;;;9.15;;
19867;SDS011;10096;51.112;6.776;2023-06-10T10:34:59;9.55;;;8.82;;
19867;SDS011;10096;51.112;6.776;2023-06-10T10:37:44;9.80;;;9.00;;
19867;SDS011;10096;51.112;6.776;2023-06-10T10:40:16;10.75;;;10.05;;
19867;SDS011;10096;51.112;6.776;2023-06-10T10:43:05;9.15;;;8.35;;
19867;SDS011;10096;51.112;6.776;2023-06-10T10:45:37;10.25;;;9.25;;
19867;SDS011;10096;51.112;6.776;2023-06-10T10:48:10;9.43;;;8.68;;
19867;SDS011;10096;51.112;6.776;2023-06-10T10:50:40;10.35;;;9.20;;
19867;SDS011;10096;51.112;6.776;2023-06-10T10:53:27;10.60;;;9.52;;
19867;SDS011;10096;51.112;6.776;2023-06-10T10:55:59;10.27;;;9.32;;
19867;SDS011;10096;51.112;6.776;2023-06-10T10:58:34;9.90;;;9.00;;
19867;SDS011;10096;51.112;6.776;2023-06-10T11:04:13;9.93;;;9.02;;
19867;SDS011;10096;51.112;6.776;2023-06-10T11:06:53;11.70;;;9.00;;
19867;SDS011;10096;51.112;6.776;2023-06-10T11:09:26;10.13;;;9.23;;
19867;SDS011;10096;51.112;6.776;2023-06-10T11:12:05;9.52;;;8.80;;
19867;SDS011;10096;51.112;6.776;2023-06-10T11:14:34;10.38;;;9.50;;
19867;SDS011;10096;51.112;6.776;2023-06-10T11:17:12;9.73;;;8.93;;
19867;SDS011;10096;51.112;6.776;2023-06-10T11:19:48;9.57;;;8.80;;
19867;SDS011;10096;51.112;6.776;2023-06-10T11:22:20;9.65;;;8.73;;
19867;SDS011;10096;51.112;6.776;2023-06-10T11:24:52;9.02;;;8.23;;
19867;SDS011;10096;51.112;6.776;2023-06-10T11:27:29;8.85;;;8.15;;
19867;SDS011;10096;51.112;6.776;2023-06-10T11:30:18;9.18;;;8.35;;
19867;SDS011;10096;51.112;6.776;2023-06-10T11:32:49;8.77;;;8.07;;
19867;SDS011;10096;51.112;6.776;2023-06-10T11:35:26;9.18;;;8.57;;
19867;SDS011;10096;51.112;6.776;2023-06-10T11:38:05;8.93;;;8.13;;
19867;SDS011;10096;51.112;6.776;2023-06-10T11:40:33;10.82;;;8.73;;
19867;SDS011;10096;51.112;6.776;2023-06-10T11:43:03;9.32;;;8.43;;
19867;SDS011;10096;51.112;6.776;2023-06-10T11:45:31;8.57;;;7.80;;
19867;SDS011;10096;51.112;6.776;2023-06-10T11:48:01;9.18;;;8.27;;
19867;SDS011;10096;51.112;6.776;2023-06-10T11:50:31;9.10;;;8.32;;
19867;SDS011;10096;51.112;6.776;2023-06-10T11:52:59;16.77;;;9.60;;
19867;SDS011;10096;51.112;6.776;2023-06-10T11:55:46;8.73;;;7.93;;
19867;SDS011;10096;51.112;6.776;2023-06-10T11:58:22;9.52;;;8.63;;
19867;SDS011;10096;51.112;6.776;2023-06-10T12:00:55;9.73;;;8.73;;
19867;SDS011;10096;51.112;6.776;2023-06-10T12:03:23;10.27;;;9.25;;
19867;SDS011;10096;51.112;6.776;2023-06-10T12:05:57;37.55;;;11.27;;
19867;SDS011;10096;51.112;6.776;2023-06-10T12:08:26;9.55;;;8.65;;
19867;SDS011;10096;51.112;6.776;2023-06-10T12:10:55;9.63;;;8.77;;
19867;SDS011;10096;51.112;6.776;2023-06-10T12:13:23;9.57;;;8.77;;
19867;SDS011;10096;51.112;6.776;2023-06-10T12:15:53;9.63;;;8.80;;
19867;SDS011;10096;51.112;6.776;2023-06-10T12:18:21;8.77;;;8.13;;
19867;SDS011;10096;51.112;6.776;2023-06-10T12:20:49;9.30;;;8.57;;
19867;SDS011;10096;51.112;6.776;2023-06-10T12:23:18;8.95;;;8.18;;
19867;SDS011;10096;51.112;6.776;2023-06-10T12:25:49;8.48;;;7.78;;
19867;SDS011;10096;51.112;6.776;2023-06-10T12:28:21;9.52;;;8.73;;
19867;SDS011;10096;51.112;6.776;2023-06-10T12:30:49;8.70;;;8.05;;
19867;SDS011;10096;51.112;6.776;2023-06-10T12:33:21;9.13;;;8.07;;
19867;SDS011;10096;51.112;6.776;2023-06-10T12:35:49;9.80;;;8.90;;
19867;SDS011;10096;51.112;6.776;2023-06-10T12:38:20;9.30;;;8.43;;
19867;SDS011;10096;51.112;6.776;2023-06-10T12:40:49;8.95;;;8.15;;
19867;SDS011;10096;51.112;6.776;2023-06-10T12:43:22;8.88;;;8.07;;
19867;SDS011;10096;51.112;6.776;2023-06-10T12:45:49;8.93;;;8.10;;
19867;SDS011;10096;51.112;6.776;2023-06-10T12:48:17;9.05;;;8.25;;
19867;SDS011;10096;51.112;6.776;2023-06-10T12:50:50;9.77;;;8.73;;
19867;SDS011;10096;51.112;6.776;2023-06-10T12:53:19;9.80;;;8.55;;
19867;SDS011;10096;51.112;6.776;2023-06-10T12:55:48;8.82;;;7.95;;
19867;SDS011;10096;51.112;6.776;2023-06-10T12:58:15;8.95;;;8.20;;
19867;SDS011;10096;51.112;6.776;2023-06-10T13:00:44;9.90;;;9.10;;
19867;SDS011;10096;51.112;6.776;2023-06-10T13:03:13;8.68;;;7.88;;
19867;SDS011;10096;51.112;6.776;2023-06-10T13:05:41;9.05;;;8.15;;
19867;SDS011;10096;51.112;6.776;2023-06-10T13:08:11;9.90;;;8.50;;
19867;SDS011;10096;51.112;6.776;2023-06-10T13:10:39;8.45;;;7.82;;
19867;SDS011;10096;51.112;6.776;2023-06-10T13:13:07;10.10;;;8.93;;
19867;SDS011;10096;51.112;6.776;2023-06-10T13:15:35;9.23;;;8.27;;
19867;SDS011;10096;51.112;6.776;2023-06-10T13:18:04;9.18;;;8.45;;
19867;SDS011;10096;51.112;6.776;2023-06-10T13:20:32;9.20;;;7.60;;
19867;SDS011;10096;51.112;6.776;2023-06-10T13:22:59;8.70;;;8.00;;
19867;SDS011;10096;51.112;6.776;2023-06-10T13:25:27;8.57;;;7.88;;
19867;SDS011;10096;51.112;6.776;2023-06-10T13:27:54;9.10;;;8.32;;
19867;SDS011;10096;51.112;6.776;2023-06-10T13:30:22;8.32;;;7.72;;
19867;SDS011;10096;51.112;6.776;2023-06-10T13:32:50;8.65;;;7.68;;
19867;SDS011;10096;51.112;6.776;2023-06-10T13:35:19;9.52;;;7.72;;
19867;SDS011;10096;51.112;6.776;2023-06-10T13:37:47;8.02;;;7.32;;
19867;SDS011;10096;51.112;6.776;2023-06-10T13:40:18;7.68;;;7.07;;
19867;SDS011;10096;51.112;6.776;2023-06-10T13:42:45;7.72;;;6.95;;
19867;SDS011;10096;51.112;6.776;2023-06-10T13:45:15;8.23;;;7.53;;
19867;SDS011;10096;51.112;6.776;2023-06-10T13:47:43;7.65;;;6.93;;
19867;SDS011;10096;51.112;6.776;2023-06-10T13:50:11;8.40;;;7.60;;
19867;SDS011;10096;51.112;6.776;2023-06-10T13:52:41;8.43;;;7.72;;
19867;SDS011;10096;51.112;6.776;2023-06-10T13:55:08;8.20;;;7.45;;
19867;SDS011;10096;51.112;6.776;2023-06-10T13:57:36;7.95;;;7.38;;
19867;SDS011;10096;51.112;6.776;2023-06-10T14:00:03;7.90;;;7.20;;
19867;SDS011;10096;51.112;6.776;2023-06-10T14:02:36;8.05;;;7.35;;
19867;SDS011;10096;51.112;6.776;2023-06-10T14:05:04;8.48;;;7.78;;
19867;SDS011;10096;51.112;6.776;2023-06-10T14:07:33;8.32;;;7.72;;
19867;SDS011;10096;51.112;6.776;2023-06-10T14:10:06;8.90;;;8.05;;
19867;SDS011;10096;51.112;6.776;2023-06-10T14:12:34;9.63;;;8.77;;
19867;SDS011;10096;51.112;6.776;2023-06-10T14:15:02;9.40;;;8.60;;
19867;SDS011;10096;51.112;6.776;2023-06-10T14:17:35;9.68;;;8.68;;
19867;SDS011;10096;51.112;6.776;2023-06-10T14:20:03;8.95;;;8.20;;
19867;SDS011;10096;51.112;6.776;2023-06-10T14:22:30;10.05;;;7.82;;
19867;SDS011;10096;51.112;6.776;2023-06-10T14:24:59;9.13;;;7.80;;
19867;SDS011;10096;51.112;6.776;2023-06-10T14:27:28;9.20;;;8.13;;
19867;SDS011;10096;51.112;6.776;2023-06-10T14:29:58;8.57;;;7.78;;
19867;SDS011;10096;51.112;6.776;2023-06-10T14:32:29;9.38;;;8.43;;
19867;SDS011;10096;51.112;6.776;2023-06-10T14:34:56;7.90;;;7.20;;
19867;SDS011;10096;51.112;6.776;2023-06-10T14:37:34;9.00;;;8.15;;
19867;SDS011;10096;51.112;6.776;2023-06-10T14:40:02;8.57;;;7.68;;
19867;SDS011;10096;51.112;6.776;2023-06-10T14:42:32;9.02;;;8.10;;
19867;SDS011;10096;51.112;6.776;2023-06-10T14:45:01;8.20;;;7.40;;
19867;SDS011;10096;51.112;6.776;2023-06-10T14:47:28;8.90;;;8.10;;
19867;SDS011;10096;51.112;6.776;2023-06-10T14:49:55;9.02;;;8.32;;
19867;SDS011;10096;51.112;6.776;2023-06-10T14:52:25;8.30;;;7.60;;
19867;SDS011;10096;51.112;6.776;2023-06-10T14:54:52;9.75;;;7.68;;